Time;durP1;ratioP1;P1;durP2;ratioP2;P2;SDS_P1;SDS_P2;PMS_P1;PMS_P2;Temp;Humidity;BMP_temperature;BMP_pressure;BME280_temperature;BME280_humidity;BME280_pressure;Samples;Min_cycle;Max_cycle;Signal;HPM_P1;HPM_P2
2021/09/21 02:45:22;;;;;;;10.52;6.30;;;14.50;81.80;;;;;;5790512;24;20847;31
2021/09/21 02:47:47;;;;;;;9.73;6.38;;;14.50;81.60;;;;;;4736558;30;20065;-82
2021/09/21 02:50:13;;;;;;;14.50;6.57;;;14.50;81.80;;;;;;4751189;30;20055;-82
2021/09/21 02:52:39;;;;;;;11.93;7.10;;;14.50;81.80;;;;;;4736682;30;20043;-83
2021/09/21 02:55:06;;;;;;;9.55;5.82;;;14.50;82.00;;;;;;4746524;30;20261;-82
2021/09/21 02:57:33;;;;;;;9.40;6.00;;;14.60;81.80;;;;;;4768981;30;20035;-82
2021/09/21 02:59:59;;;;;;;;;;;14.60;81.80;;;;;;4769389;30;20043;-82
2021/09/21 03:02:25;;;;;;;12.30;6.70;;;14.60;81.60;;;;;;4768123;30;19910;-82
2021/09/21 03:04:57;;;;;;;11.27;5.83;;;14.60;81.60;;;;;;4769015;30;20047;-82
2021/09/21 03:07:34;;;;;;;15.95;6.47;;;14.60;82.10;;;;;;4769080;30;20079;-83
2021/09/21 03:13:12;;;;;;;8.60;6.25;;;14.60;82.70;;;;;;4746669;30;20052;-82
2021/09/21 03:18:23;;;;;;;10.93;6.07;;;14.60;82.90;;;;;;4746426;30;20047;-83
2021/09/21 03:20:49;;;;;;;9.73;6.10;;;14.60;82.70;;;;;;4732710;30;20032;-82
2021/09/21 03:23:14;;;;;;;9.63;6.55;;;14.60;82.90;;;;;;4732205;30;20059;-82
2021/09/21 03:25:40;;;;;;;12.38;6.93;;;14.60;83.00;;;;;;4732329;30;20044;-82
2021/09/21 03:28:07;;;;;;;11.10;6.60;;;14.60;83.00;;;;;;4742979;30;20032;-82
2021/09/21 03:30:33;;;;;;;11.82;7.45;;;14.60;83.10;;;;;;4764768;30;20048;-83
2021/09/21 03:32:59;;;;;;;11.75;6.72;;;14.50;83.10;;;;;;4750090;30;20036;-83
2021/09/21 03:35:25;;;;;;;9.23;6.55;;;14.50;83.30;;;;;;4764931;30;20040;-83
2021/09/21 03:37:51;;;;;;;10.13;6.85;;;14.50;83.60;;;;;;4735532;30;20102;-83
2021/09/21 03:40:16;;;;;;;9.98;6.70;;;14.50;83.70;;;;;;4749967;30;20054;-83
2021/09/21 03:42:42;;;;;;;11.93;6.88;;;14.50;83.80;;;;;;4749817;30;20044;-83
2021/09/21 03:45:09;;;;;;;10.10;7.07;;;14.40;83.80;;;;;;4764450;30;20127;-83
2021/09/21 03:47:35;;;;;;;10.57;7.00;;;14.40;83.70;;;;;;4749448;30;20075;-83
2021/09/21 03:50:01;;;;;;;15.82;6.75;;;14.40;83.90;;;;;;4764956;30;20043;-83
2021/09/21 03:52:26;;;;;;;13.77;8.35;;;14.40;83.90;;;;;;4768201;30;20331;-83
2021/09/21 03:54:52;;;;;;;10.18;6.60;;;14.40;83.80;;;;;;4768365;30;20416;-83
2021/09/21 03:57:18;;;;;;;14.70;7.40;;;14.40;84.20;;;;;;4768116;30;20098;-83
2021/09/21 03:59:44;;;;;;;15.18;7.38;;;14.40;84.40;;;;;;4768358;30;20035;-83
2021/09/21 04:02:09;;;;;;;13.00;7.03;;;14.30;84.60;;;;;;4782460;30;20039;-83
2021/09/21 04:04:35;;;;;;;9.98;7.03;;;14.40;84.50;;;;;;4767830;30;20039;-83
2021/09/21 04:07:01;;;;;;;14.68;8.00;;;14.40;84.80;;;;;;4768099;30;20047;-83
2021/09/21 04:09:27;;;;;;;16.35;7.95;;;14.40;85.10;;;;;;4767995;30;20039;-83
2021/09/21 04:11:52;;;;;;;11.73;8.48;;;14.40;85.10;;;;;;4768075;30;20036;-83
2021/09/21 04:14:18;;;;;;;10.05;7.45;;;14.30;85.30;;;;;;4768352;30;20035;-83
2021/09/21 04:16:44;;;;;;;12.48;8.07;;;14.30;85.60;;;;;;4768088;30;20042;-83
2021/09/21 04:19:10;;;;;;;16.63;8.35;;;14.40;85.50;;;;;;4767910;30;20107;-83
2021/09/21 04:21:35;;;;;;;11.77;7.60;;;14.30;85.50;;;;;;4767859;30;20238;-83
2021/09/21 04:24:01;;;;;;;11.88;7.43;;;14.30;85.90;;;;;;4767542;30;20040;-83
2021/09/21 04:26:27;;;;;;;12.43;7.63;;;14.30;85.70;;;;;;4767543;30;20599;-83
2021/09/21 04:28:53;;;;;;;39.15;7.80;;;14.30;85.90;;;;;;4767793;30;20110;-83
2021/09/21 04:31:23;;;;;;;10.75;7.60;;;14.20;85.70;;;;;;4767440;30;20043;-83
2021/09/21 04:33:51;;;;;;;14.10;6.97;;;14.20;85.80;;;;;;4782240;30;20157;-83
2021/09/21 04:36:17;;;;;;;14.70;7.00;;;14.20;86.10;;;;;;4767233;30;20085;-83
2021/09/21 04:38:43;;;;;;;16.53;8.23;;;14.30;86.30;;;;;;4767416;30;20040;-83
2021/09/21 04:41:10;;;;;;;11.15;8.15;;;14.30;86.10;;;;;;4767016;30;20424;-83
2021/09/21 04:43:37;;;;;;;;;;;14.30;86.10;;;;;;4767299;30;20331;-83
2021/09/21 04:46:08;;;;;;;13.32;7.90;;;14.30;86.10;;;;;;4746178;30;19915;-83
2021/09/21 04:48:34;;;;;;;14.48;8.60;;;14.30;86.20;;;;;;4746698;30;20047;-83
2021/09/21 04:51:00;;;;;;;10.68;7.32;;;14.30;85.90;;;;;;4746830;30;20043;-83
2021/09/21 04:53:26;;;;;;;16.33;7.72;;;14.30;86.00;;;;;;4746749;30;20040;-83
2021/09/21 04:55:52;;;;;;;12.90;8.20;;;14.40;86.10;;;;;;4761157;30;20044;-83
2021/09/21 04:58:17;;;;;;;13.98;7.68;;;14.40;86.30;;;;;;4746551;30;20028;-83
2021/09/21 05:00:43;;;;;;;10.63;7.70;;;14.30;86.20;;;;;;4747610;30;20103;-83
2021/09/21 05:03:09;;;;;;;12.35;8.20;;;14.30;86.30;;;;;;4746229;30;20110;-83
2021/09/21 05:05:35;;;;;;;14.45;7.68;;;14.30;87.20;;;;;;4746526;30;20044;-83
2021/09/21 05:08:01;;;;;;;13.45;8.57;;;14.40;86.20;;;;;;4745825;30;20028;-82
2021/09/21 05:10:31;;;;;;;16.23;8.27;;;14.40;86.00;;;;;;4747369;30;20040;-83
2021/09/21 05:12:58;;;;;;;11.27;7.57;;;14.40;86.10;;;;;;4746117;30;20040;-82
2021/09/21 05:15:24;;;;;;;11.53;7.63;;;14.30;86.20;;;;;;4742763;30;20068;-82
2021/09/21 05:17:50;;;;;;;13.18;8.25;;;14.40;86.10;;;;;;4731112;30;20056;-83
2021/09/21 05:20:17;;;;;;;22.23;7.93;;;14.40;86.20;;;;;;4711056;30;20040;-83
2021/09/21 05:22:42;;;;;;;18.85;7.38;;;14.40;86.40;;;;;;4742647;30;20037;-83
2021/09/21 05:25:09;;;;;;;12.00;7.50;;;14.40;86.30;;;;;;4727076;30;20067;-83
2021/09/21 05:27:34;;;;;;;12.02;7.63;;;14.50;86.40;;;;;;4730881;30;20394;-83
2021/09/21 05:30:00;;;;;;;16.25;10.18;;;14.50;86.60;;;;;;4745464;30;20036;-83
2021/09/21 05:32:26;;;;;;;21.48;8.25;;;14.60;86.30;;;;;;4730866;30;20100;-83
2021/09/21 05:34:52;;;;;;;16.52;7.45;;;14.60;86.50;;;;;;4721417;30;20037;-83
2021/09/21 05:37:17;;;;;;;15.32;7.80;;;14.60;86.40;;;;;;4699431;30;20044;-83
2021/09/21 05:39:43;;;;;;;13.73;7.55;;;14.70;86.40;;;;;;4714819;30;20343;-83
2021/09/21 05:42:09;;;;;;;10.55;8.25;;;14.80;85.80;;;;;;4728587;30;20028;-82
2021/09/21 05:44:35;;;;;;;14.65;8.18;;;14.80;85.50;;;;;;4731083;30;20045;-82
2021/09/21 05:47:01;;;;;;;12.50;6.95;;;14.80;85.60;;;;;;4742083;30;20070;-82
2021/09/21 05:49:26;;;;;;;13.27;7.82;;;14.80;85.80;;;;;;4763103;30;20043;-82
2021/09/21 05:51:52;;;;;;;16.60;7.90;;;14.80;85.70;;;;;;4747782;30;20036;-82
2021/09/21 05:54:18;;;;;;;11.90;7.80;;;14.80;85.60;;;;;;4762761;30;20219;-83
2021/09/21 05:56:44;;;;;;;12.57;7.57;;;14.90;85.50;;;;;;4747918;30;20103;-82
2021/09/21 05:59:09;;;;;;;10.50;7.30;;;14.90;85.40;;;;;;4763796;30;20527;-83
2021/09/21 06:01:35;;;;;;;14.23;9.02;;;14.90;85.20;;;;;;4747990;30;20040;-82
2021/09/21 06:04:02;;;;;;;11.13;7.82;;;14.90;85.10;;;;;;4747639;30;20059;-83
2021/09/21 06:06:28;;;;;;;14.13;7.88;;;14.90;85.30;;;;;;4762628;30;20043;-82
2021/09/21 06:08:54;;;;;;;14.63;8.18;;;15.00;85.30;;;;;;4747698;30;20111;-82
2021/09/21 06:11:20;;;;;;;15.68;8.02;;;15.00;85.00;;;;;;4747391;30;20070;-82
2021/09/21 06:13:49;;;;;;;11.43;7.63;;;15.10;84.80;;;;;;4747469;30;20039;-82
2021/09/21 06:16:18;;;;;;;15.95;7.18;;;15.10;84.50;;;;;;4762283;30;20039;-83
2021/09/21 06:18:45;;;;;;;16.80;7.80;;;15.20;84.10;;;;;;4729842;30;20355;-83
2021/09/21 06:21:10;;;;;;;16.20;8.50;;;15.20;84.10;;;;;;4742878;30;20034;-85
2021/09/21 06:23:36;;;;;;;19.88;8.95;;;15.20;84.10;;;;;;4762995;30;20067;-85
2021/09/21 06:26:02;;;;;;;18.80;8.25;;;15.20;84.10;;;;;;4745305;30;20037;-83
2021/09/21 06:28:28;;;;;;;16.08;7.88;;;15.20;83.90;;;;;;4747085;30;20231;-84
2021/09/21 06:30:53;;;;;;;17.65;7.25;;;15.20;83.80;;;;;;4762280;30;20031;-85
2021/09/21 06:33:19;;;;;;;13.60;8.30;;;15.30;83.90;;;;;;4762897;30;20277;-85
2021/09/21 06:35:45;;;;;;;16.20;7.90;;;15.30;84.00;;;;;;4748876;30;20032;-86
2021/09/21 06:38:11;;;;;;;13.20;7.38;;;15.40;83.60;;;;;;4763117;30;20048;-85
2021/09/21 06:40:37;;;;;;;14.95;7.50;;;15.40;83.60;;;;;;4762698;30;20347;-82
2021/09/21 06:43:02;;;;;;;11.82;8.25;;;15.40;83.80;;;;;;4747660;30;20037;-84
2021/09/21 06:45:28;;;;;;;14.63;7.95;;;15.60;83.30;;;;;;4750645;30;20036;-85
2021/09/21 06:47:54;;;;;;;14.98;7.82;;;15.60;82.50;;;;;;4746998;30;20064;-84
2021/09/21 06:50:20;;;;;;;12.15;7.40;;;15.60;82.10;;;;;;4761621;30;20086;-84
2021/09/21 06:52:46;;;;;;;10.35;7.65;;;15.70;82.50;;;;;;4747104;30;20332;-84
2021/09/21 06:55:13;;;;;;;14.40;7.60;;;15.70;82.70;;;;;;4747557;30;20040;-85
2021/09/21 06:57:39;;;;;;;;;;;15.80;82.20;;;;;;4745521;30;20033;-85
2021/09/21 07:00:08;;;;;;;13.13;7.55;;;15.90;81.20;;;;;;4729726;30;19917;-83
2021/09/21 07:02:34;;;;;;;12.82;7.88;;;15.90;80.60;;;;;;4714918;30;20296;-83
2021/09/21 07:05:00;;;;;;;12.57;7.63;;;16.00;79.90;;;;;;4729813;30;20036;-83
2021/09/21 07:07:26;;;;;;;12.23;7.28;;;16.10;78.50;;;;;;4729671;30;20047;-82
2021/09/21 07:09:52;;;;;;;18.17;8.10;;;16.00;79.00;;;;;;4729319;30;20312;-82
2021/09/21 07:12:17;;;;;;;10.77;6.50;;;16.10;77.70;;;;;;4729127;30;20048;-82
2021/09/21 07:14:43;;;;;;;14.88;7.25;;;16.10;78.50;;;;;;4728974;30;20037;-82
2021/09/21 07:17:09;;;;;;;12.52;6.95;;;16.30;77.50;;;;;;4729397;30;20037;-82
2021/09/21 07:19:35;;;;;;;16.02;6.40;;;16.30;77.50;;;;;;4729508;30;20107;-82
2021/09/21 07:22:01;;;;;;;13.52;6.85;;;16.50;77.50;;;;;;4729507;30;20032;-83
2021/09/21 07:24:26;;;;;;;15.60;7.20;;;16.60;77.50;;;;;;4729253;30;20040;-84
2021/09/21 07:26:52;;;;;;;8.85;6.45;;;16.70;76.40;;;;;;4729125;30;20324;-83
2021/09/21 07:29:19;;;;;;;9.32;6.57;;;16.90;75.80;;;;;;4728996;30;20048;-83
2021/09/21 07:31:45;;;;;;;9.13;6.53;;;17.00;73.70;;;;;;4729449;30;20064;-83
2021/09/21 07:34:11;;;;;;;13.35;7.15;;;17.00;74.90;;;;;;4732743;30;20555;-84
2021/09/21 07:36:37;;;;;;;14.40;6.35;;;17.20;74.60;;;;;;4732476;30;20024;-84
2021/09/21 07:39:04;;;;;;;12.88;6.40;;;17.30;72.50;;;;;;4753271;30;20036;-84
2021/09/21 07:41:29;;;;;;;;;;;17.40;72.80;;;;;;4750762;30;20098;-83
2021/09/21 07:43:55;;;;;;;8.60;5.40;;;17.50;70.20;;;;;;4749932;30;19985;-84
2021/09/21 07:46:21;;;;;;;10.55;5.10;;;17.60;71.90;;;;;;4749414;30;20060;-83
2021/09/21 07:48:47;;;;;;;5.82;4.25;;;17.60;69.90;;;;;;4735420;30;20042;-83
2021/09/21 07:51:13;;;;;;;6.68;4.60;;;17.60;69.00;;;;;;4750006;30;20039;-83
2021/09/21 07:53:39;;;;;;;6.35;4.47;;;17.70;67.60;;;;;;4750064;30;20036;-84
2021/09/21 07:56:04;;;;;;;10.30;4.47;;;17.70;68.50;;;;;;4735418;30;20048;-83
2021/09/21 07:58:30;;;;;;;7.82;4.93;;;17.80;68.60;;;;;;4749877;30;20032;-83
2021/09/21 08:00:56;;;;;;;10.00;5.33;;;17.90;65.50;;;;;;4764802;30;20346;-83
2021/09/21 08:03:22;;;;;;;12.05;4.88;;;17.90;65.10;;;;;;4749680;30;20056;-83
2021/09/21 08:05:49;;;;;;;9.98;4.88;;;18.00;66.20;;;;;;4764573;30;20063;-83
2021/09/21 08:08:17;;;;;;;14.05;5.40;;;17.90;65.60;;;;;;4749989;30;20047;-83
2021/09/21 08:10:44;;;;;;;7.72;4.63;;;18.00;65.60;;;;;;4749125;30;20047;-83
2021/09/21 08:13:11;;;;;;;8.20;4.57;;;18.10;65.80;;;;;;4749462;30;20270;-83
2021/09/21 08:15:37;;;;;;;11.88;5.55;;;18.20;65.00;;;;;;4749867;30;20028;-83
2021/09/21 08:18:03;;;;;;;8.90;5.55;;;18.40;64.90;;;;;;4749800;30;20134;-83
2021/09/21 08:20:28;;;;;;;10.07;5.47;;;18.50;64.40;;;;;;4749497;30;20043;-83
2021/09/21 08:22:55;;;;;;;7.10;4.95;;;18.50;64.70;;;;;;4749949;30;20032;-83
2021/09/21 08:25:22;;;;;;;8.48;4.80;;;18.50;65.10;;;;;;4749533;30;20044;-83
2021/09/21 08:27:50;;;;;;;13.13;5.45;;;18.50;63.90;;;;;;4749977;30;20089;-83
2021/09/21 08:30:19;;;;;;;7.65;5.40;;;18.50;65.00;;;;;;4749641;30;20040;-83
2021/09/21 08:32:45;;;;;;;11.95;5.47;;;18.60;64.90;;;;;;4765275;30;20036;-83
2021/09/21 08:35:11;;;;;;;11.17;4.83;;;18.70;64.30;;;;;;4749284;30;20040;-83
2021/09/21 08:37:37;;;;;;;7.65;5.18;;;18.90;64.10;;;;;;4749674;30;20091;-83
2021/09/21 08:40:03;;;;;;;8.38;5.30;;;18.90;64.60;;;;;;4749303;30;20209;-83
2021/09/21 08:42:29;;;;;;;9.67;5.70;;;19.20;64.30;;;;;;4734384;30;20024;-83
2021/09/21 08:44:55;;;;;;;7.45;4.82;;;19.40;63.20;;;;;;4748941;30;20040;-83
2021/09/21 08:47:21;;;;;;;8.55;4.55;;;19.50;61.50;;;;;;4749281;30;20056;-84
2021/09/21 08:49:47;;;;;;;5.93;4.00;;;19.40;60.90;;;;;;4763727;30;20040;-85
2021/09/21 08:52:13;;;;;;;10.65;4.80;;;19.40;59.60;;;;;;4734575;30;20047;-85
2021/09/21 08:54:39;;;;;;;9.35;4.30;;;19.40;61.20;;;;;;4764198;30;20220;-85
2021/09/21 08:57:05;;;;;;;6.22;3.90;;;19.50;60.70;;;;;;4749274;30;20111;-85
2021/09/21 08:59:37;;;;;;;6.22;3.33;;;19.70;60.10;;;;;;4734589;30;20055;-85
2021/09/21 09:02:08;;;;;;;7.85;4.35;;;19.80;59.10;;;;;;4764500;30;20068;-85
2021/09/21 09:04:35;;;;;;;7.95;3.83;;;19.80;57.50;;;;;;4749496;30;20028;-85
2021/09/21 09:07:01;;;;;;;8.73;3.92;;;19.70;57.70;;;;;;4749333;30;20039;-85
2021/09/21 09:09:30;;;;;;;;;;;19.70;59.60;;;;;;4750103;30;20397;-85
2021/09/21 09:11:59;;;;;;;7.13;3.92;;;19.70;57.50;;;;;;4748813;30;19988;-84
2021/09/21 09:14:34;;;;;;;7.13;3.30;;;19.40;57.40;;;;;;4748664;30;20366;-84
2021/09/21 09:17:06;;;;;;;6.95;3.33;;;19.20;57.10;;;;;;4763568;30;20059;-84
2021/09/21 09:19:37;;;;;;;7.65;4.35;;;19.30;56.90;;;;;;4764387;30;20081;-82
2021/09/21 09:22:11;;;;;;;6.88;4.50;;;19.30;58.50;;;;;;4749204;30;20051;-82
2021/09/21 09:24:50;;;;;;;8.05;3.92;;;19.40;58.00;;;;;;4748953;30;20099;-82
2021/09/21 09:27:17;;;;;;;5.80;4.30;;;19.90;59.70;;;;;;4763150;30;20039;-82
2021/09/21 09:29:58;;;;;;;7.30;5.03;;;20.00;56.90;;;;;;4748733;30;20032;-82
2021/09/21 09:32:25;;;;;;;6.35;4.57;;;19.90;57.40;;;;;;4748383;30;20040;-82
2021/09/21 09:34:51;;;;;;;10.25;4.55;;;20.00;56.50;;;;;;4748424;30;20021;-82
2021/09/21 09:37:18;;;;;;;9.00;4.97;;;19.90;57.90;;;;;;4748741;30;20043;-82
2021/09/21 09:39:46;;;;;;;7.03;4.50;;;19.90;56.60;;;;;;4748485;30;20327;-83
2021/09/21 09:42:13;;;;;;;6.40;4.20;;;20.30;58.10;;;;;;4763015;30;20040;-83
2021/09/21 09:44:40;;;;;;;7.38;4.32;;;20.60;55.80;;;;;;4748518;30;20021;-82
2021/09/21 09:47:07;;;;;;;11.45;4.45;;;20.70;54.90;;;;;;4747892;30;20125;-83
2021/09/21 09:49:34;;;;;;;6.68;3.95;;;21.00;55.50;;;;;;4748123;30;20040;-83
2021/09/21 09:52:11;;;;;;;12.48;4.65;;;20.90;55.10;;;;;;4747838;30;20059;-83
2021/09/21 09:54:39;;;;;;;12.35;5.55;;;21.10;53.70;;;;;;4747852;30;20040;-82
2021/09/21 09:57:06;;;;;;;6.35;4.03;;;20.90;54.20;;;;;;4747362;30;20063;-83
2021/09/21 09:59:33;;;;;;;7.90;3.40;;;20.60;54.00;;;;;;4747994;30;20043;-83
2021/09/21 10:01:59;;;;;;;5.43;4.20;;;20.40;51.40;;;;;;4762968;30;20385;-82
2021/09/21 10:04:24;;;;;;;7.88;3.90;;;20.10;52.20;;;;;;4762427;30;20032;-82
2021/09/21 10:06:51;;;;;;;8.48;4.63;;;19.90;53.80;;;;;;4748089;30;20032;-82
2021/09/21 10:09:18;;;;;;;10.38;3.90;;;19.80;54.10;;;;;;4762723;30;20055;-82
2021/09/21 10:11:46;;;;;;;6.22;3.45;;;19.70;53.10;;;;;;4747926;30;20074;-82
2021/09/21 10:14:12;;;;;;;21.05;4.38;;;19.50;54.60;;;;;;4747820;30;20051;-83
2021/09/21 10:16:59;;;;;;;8.13;4.53;;;19.40;53.90;;;;;;4747841;30;20032;-82
2021/09/21 10:19:26;;;;;;;9.20;4.60;;;19.20;55.20;;;;;;4762413;30;20032;-83
2021/09/21 10:21:54;;;;;;;5.18;4.35;;;19.40;56.80;;;;;;4748227;30;20036;-83
2021/09/21 10:24:40;;;;;;;7.07;5.00;;;19.40;58.70;;;;;;4762784;30;20231;-83
2021/09/21 10:27:17;;;;;;;6.50;4.90;;;19.60;57.30;;;;;;4748106;30;20111;-83
2021/09/21 10:29:42;;;;;;;8.48;4.63;;;19.70;57.20;;;;;;4763608;30;20039;-83
2021/09/21 10:32:14;;;;;;;9.82;4.70;;;19.80;56.60;;;;;;4747907;30;20032;-83
2021/09/21 10:34:47;;;;;;;8.43;4.82;;;19.80;57.00;;;;;;4747888;30;20213;-83
2021/09/21 10:37:17;;;;;;;5.57;4.05;;;19.90;57.60;;;;;;4747990;30;20047;-83
2021/09/21 10:39:42;;;;;;;5.75;4.03;;;19.80;56.70;;;;;;4762337;30;20036;-83
2021/09/21 10:42:13;;;;;;;6.45;4.03;;;19.70;55.80;;;;;;4762576;30;20079;-83
2021/09/21 10:44:52;;;;;;;6.72;4.15;;;19.70;56.60;;;;;;4747612;30;20336;-83
2021/09/21 10:47:38;;;;;;;9.90;4.57;;;19.40;56.20;;;;;;4761985;30;20516;-83
2021/09/21 10:50:18;;;;;;;6.15;4.03;;;19.30;57.40;;;;;;4747465;30;20044;-83
2021/09/21 10:52:45;;;;;;;6.93;4.32;;;19.30;58.20;;;;;;4747648;30;20331;-83
2021/09/21 10:55:14;;;;;;;5.68;4.28;;;19.30;57.60;;;;;;4763427;30;20060;-83
2021/09/21 10:57:50;;;;;;;14.32;5.00;;;19.30;57.60;;;;;;4762499;30;20103;-83
2021/09/21 11:00:20;;;;;;;11.63;4.63;;;19.40;58.30;;;;;;4747547;30;20111;-83
2021/09/21 11:02:48;;;;;;;5.15;4.38;;;19.30;58.20;;;;;;4762369;30;20040;-83
2021/09/21 11:05:18;;;;;;;9.45;4.18;;;19.40;58.00;;;;;;4747975;30;20056;-83
2021/09/21 11:07:59;;;;;;;8.55;4.85;;;19.40;58.80;;;;;;4749714;30;20043;-83
2021/09/21 11:10:31;;;;;;;12.30;4.97;;;19.50;58.90;;;;;;4765725;30;20040;-83
2021/09/21 11:12:57;;;;;;;10.50;5.10;;;19.40;58.30;;;;;;4751529;30;20032;-83
2021/09/21 11:15:26;;;;;;;8.60;4.72;;;19.40;58.90;;;;;;4765825;30;20098;-83
2021/09/21 11:18:02;;;;;;;8.60;4.80;;;19.40;58.10;;;;;;4750603;30;20111;-83
2021/09/21 11:20:28;;;;;;;10.25;5.20;;;19.40;57.30;;;;;;4750702;30;20036;-83
2021/09/21 11:22:53;;;;;;;9.20;5.13;;;19.10;57.60;;;;;;4750272;30;20040;-83
2021/09/21 11:25:21;;;;;;;7.07;5.13;;;19.00;58.80;;;;;;4747725;30;20040;-82
2021/09/21 11:27:47;;;;;;;9.73;5.25;;;19.00;58.80;;;;;;4733198;30;20289;-83
2021/09/21 11:30:15;;;;;;;15.55;5.25;;;19.00;58.90;;;;;;4732695;30;20040;-83
2021/09/21 11:32:43;;;;;;;8.23;4.45;;;18.90;58.70;;;;;;4732787;30;20332;-83
2021/09/21 11:35:12;;;;;;;6.90;3.95;;;18.80;59.90;;;;;;4732585;30;20045;-82
2021/09/21 11:37:41;;;;;;;9.50;4.18;;;18.80;57.70;;;;;;4732720;30;20227;-82
2021/09/21 11:40:07;;;;;;;7.32;3.95;;;18.70;58.20;;;;;;4733123;30;20037;-82
2021/09/21 11:42:34;;;;;;;9.33;3.77;;;18.70;56.70;;;;;;4734739;30;20071;-83
2021/09/21 11:45:05;;;;;;;5.88;3.47;;;18.60;56.90;;;;;;4750929;30;20103;-83
2021/09/21 11:47:40;;;;;;;9.70;4.30;;;18.70;57.50;;;;;;4754612;30;20048;-82
2021/09/21 11:50:11;;;;;;;7.07;4.28;;;18.70;57.10;;;;;;4754139;30;20267;-83
2021/09/21 11:52:37;;;;;;;6.00;3.60;;;18.80;57.60;;;;;;4750320;30;20067;-83
2021/09/21 11:55:13;;;;;;;10.90;4.30;;;18.80;57.40;;;;;;4756884;30;20044;-83
2021/09/21 11:57:40;;;;;;;6.10;4.13;;;18.90;57.30;;;;;;4748044;30;20350;-83
2021/09/21 12:00:06;;;;;;;;;;;18.90;58.10;;;;;;4748879;30;20033;-83
2021/09/21 12:02:33;;;;;;;13.15;3.40;;;19.00;58.00;;;;;;4748172;30;20271;-83
2021/09/21 12:04:59;;;;;;;;;;;19.10;56.90;;;;;;4733973;30;20044;-84
2021/09/21 12:07:25;;;;;;;15.70;4.63;;;19.20;57.70;;;;;;4733310;30;19942;-84
2021/09/21 12:09:53;;;;;;;8.10;3.40;;;19.20;56.10;;;;;;4732701;30;20028;-83
2021/09/21 12:12:22;;;;;;;8.27;3.42;;;19.00;56.80;;;;;;4732268;30;20040;-83
2021/09/21 12:14:56;;;;;;;15.85;3.83;;;18.90;56.90;;;;;;4732072;30;20043;-83
2021/09/21 12:17:22;;;;;;;11.27;4.00;;;18.80;57.70;;;;;;4731849;30;20090;-83
2021/09/21 12:19:48;;;;;;;7.88;3.85;;;18.90;56.50;;;;;;4732221;30;20102;-85
2021/09/21 12:22:20;;;;;;;5.40;3.47;;;18.90;56.50;;;;;;4732676;30;20348;-85
2021/09/21 12:24:46;;;;;;;11.38;3.38;;;18.90;56.50;;;;;;4717907;30;20383;-83
2021/09/21 12:27:15;;;;;;;9.05;3.78;;;18.90;55.90;;;;;;4732010;30;20043;-82
2021/09/21 12:29:42;;;;;;;8.93;3.90;;;18.90;55.20;;;;;;4717691;30;20071;-82
2021/09/21 12:32:08;;;;;;;5.75;3.08;;;18.90;54.50;;;;;;4732072;30;20324;-82
2021/09/21 12:34:37;;;;;;;4.80;2.65;;;18.80;54.00;;;;;;4731823;30;20067;-82
2021/09/21 12:37:03;;;;;;;7.35;3.22;;;18.80;55.60;;;;;;4731977;30;20104;-82
2021/09/21 12:39:33;;;;;;;6.97;3.13;;;18.90;55.20;;;;;;4746985;30;20029;-83
2021/09/21 12:42:03;;;;;;;7.30;3.22;;;18.90;54.60;;;;;;4732139;30;20039;-82
2021/09/21 12:44:30;;;;;;;7.38;3.15;;;19.00;55.70;;;;;;4717500;30;20079;-83
2021/09/21 12:46:57;;;;;;;6.88;3.17;;;19.00;53.20;;;;;;4747391;30;20052;-83
2021/09/21 12:49:28;;;;;;;6.95;3.10;;;18.90;54.10;;;;;;4731739;30;20032;-83
2021/09/21 12:51:55;;;;;;;6.47;3.28;;;19.00;53.80;;;;;;4734178;30;20097;-82
2021/09/21 12:54:23;;;;;;;5.68;2.50;;;19.00;54.50;;;;;;4765061;30;20024;-83
2021/09/21 12:56:52;;;;;;;13.80;3.10;;;19.00;52.60;;;;;;4749017;30;20028;-83
2021/09/21 12:59:22;;;;;;;12.07;3.00;;;19.10;52.80;;;;;;4748952;30;20092;-83
2021/09/21 13:01:48;;;;;;;7.68;3.60;;;19.30;53.00;;;;;;4764894;30;20147;-83
2021/09/21 13:04:14;;;;;;;5.00;2.70;;;19.20;51.50;;;;;;4748432;30;20048;-83
2021/09/21 13:06:43;;;;;;;5.20;2.58;;;19.30;53.10;;;;;;4763446;30;20287;-82
2021/09/21 13:09:08;;;;;;;3.67;2.47;;;19.40;52.50;;;;;;4748048;30;20052;-83
2021/09/21 13:11:34;;;;;;;5.57;2.72;;;19.60;52.10;;;;;;4748659;30;20235;-82
2021/09/21 13:14:01;;;;;;;4.60;2.65;;;19.70;50.80;;;;;;4734276;30;20071;-83
2021/09/21 13:16:27;;;;;;;10.13;2.77;;;20.00;52.40;;;;;;4748495;30;20032;-83
2021/09/21 13:18:53;;;;;;;4.80;2.60;;;20.20;50.90;;;;;;4748592;30;20154;-83
2021/09/21 13:21:22;;;;;;;5.53;2.40;;;20.40;50.00;;;;;;4748633;30;20028;-83
2021/09/21 13:23:48;;;;;;;13.07;3.15;;;20.40;49.70;;;;;;4752147;30;20042;-83
2021/09/21 13:26:17;;;;;;;6.25;2.65;;;20.40;50.20;;;;;;4748836;30;20050;-81
2021/09/21 13:28:47;;;;;;;5.80;2.95;;;20.20;48.90;;;;;;4762960;30;20049;-83
2021/09/21 13:31:13;;;;;;;3.38;2.63;;;20.00;49.80;;;;;;4778681;30;20036;-82
2021/09/21 13:33:40;;;;;;;4.25;2.90;;;19.80;50.20;;;;;;4778822;30;20040;-82
2021/09/21 13:36:06;;;;;;;6.85;3.00;;;19.70;48.30;;;;;;4765590;30;20036;-82
2021/09/21 13:38:33;;;;;;;5.88;2.10;;;19.50;48.90;;;;;;4778997;30;20039;-82
2021/09/21 13:40:59;;;;;;;5.70;2.85;;;19.40;49.10;;;;;;4778772;30;20038;-81
2021/09/21 13:43:25;;;;;;;4.68;2.05;;;19.20;48.40;;;;;;4778967;30;20040;-81
2021/09/21 13:45:50;;;;;;;3.17;2.10;;;19.10;47.90;;;;;;4777879;30;20110;-81
2021/09/21 13:48:16;;;;;;;10.55;2.38;;;19.10;47.80;;;;;;4778337;30;20036;-81
2021/09/21 13:50:42;;;;;;;7.90;2.90;;;19.00;48.40;;;;;;4777833;30;20162;-81
2021/09/21 13:53:08;;;;;;;6.45;2.30;;;19.10;47.70;;;;;;4777767;30;20043;-81
2021/09/21 13:55:34;;;;;;;6.55;1.98;;;19.20;48.00;;;;;;4777937;30;20099;-81
2021/09/21 13:58:00;;;;;;;6.78;2.35;;;19.20;47.70;;;;;;4763279;30;20036;-81
2021/09/21 14:00:26;;;;;;;3.08;1.83;;;19.30;47.30;;;;;;4763823;30;20093;-81
2021/09/21 14:02:53;;;;;;;7.70;2.78;;;19.20;47.30;;;;;;4777818;30;20039;-81
2021/09/21 14:05:19;;;;;;;3.88;2.50;;;19.20;47.60;;;;;;4771186;30;20051;-81
2021/09/21 14:07:49;;;;;;;3.03;2.45;;;19.40;48.90;;;;;;4733975;30;20032;-81
2021/09/21 14:10:16;;;;;;;2.92;2.15;;;19.50;48.60;;;;;;4763076;30;20039;-81
2021/09/21 14:12:42;;;;;;;3.63;2.17;;;19.40;48.10;;;;;;4764107;30;20074;-81
2021/09/21 14:15:11;;;;;;;9.57;2.03;;;19.40;48.90;;;;;;4748447;30;20094;-81
2021/09/21 14:17:39;;;;;;;8.18;1.90;;;19.40;47.90;;;;;;4748565;30;20032;-81
2021/09/21 14:20:06;;;;;;;6.18;2.45;;;19.40;49.20;;;;;;4762653;30;20483;-82
2021/09/21 14:22:32;;;;;;;4.03;2.80;;;19.30;46.90;;;;;;4762994;30;20266;-81
2021/09/21 14:24:59;;;;;;;5.20;2.17;;;19.20;48.00;;;;;;4762987;30;20280;-82
2021/09/21 14:27:27;;;;;;;5.68;2.60;;;19.30;49.00;;;;;;4748347;30;20076;-82
2021/09/21 14:29:54;;;;;;;15.30;2.70;;;19.20;48.60;;;;;;4763132;30;20044;-82
2021/09/21 14:32:20;;;;;;;4.88;2.42;;;19.10;48.90;;;;;;4762188;30;20059;-82
2021/09/21 14:34:46;;;;;;;5.57;2.10;;;19.20;50.10;;;;;;4710550;30;20024;-82
2021/09/21 14:37:12;;;;;;;7.00;2.38;;;19.20;49.20;;;;;;4748216;30;20223;-82
2021/09/21 14:39:37;;;;;;;6.93;2.45;;;19.20;49.80;;;;;;4747945;30;20027;-82
2021/09/21 14:42:04;;;;;;;6.05;2.67;;;19.10;49.90;;;;;;4747618;30;20070;-82
2021/09/21 14:44:30;;;;;;;4.25;2.42;;;19.20;50.30;;;;;;4763649;30;20078;-82
2021/09/21 14:46:56;;;;;;;4.05;2.67;;;19.20;49.50;;;;;;4751581;30;20045;-82
2021/09/21 14:49:22;;;;;;;10.93;2.67;;;19.20;50.30;;;;;;4730303;30;20078;-82
2021/09/21 14:51:48;;;;;;;11.83;3.20;;;19.10;50.20;;;;;;4745382;30;20033;-82
2021/09/21 14:54:15;;;;;;;3.47;2.58;;;19.00;50.20;;;;;;4730280;30;20263;-82
2021/09/21 14:56:41;;;;;;;4.30;2.70;;;19.00;50.10;;;;;;4730242;30;20102;-82
2021/09/21 14:59:07;;;;;;;4.82;2.55;;;18.90;50.60;;;;;;4745662;30;20040;-82
2021/09/21 15:01:33;;;;;;;13.90;3.65;;;18.90;51.20;;;;;;4730920;30;20547;-81
2021/09/21 15:03:59;;;;;;;6.00;2.33;;;18.80;51.30;;;;;;4731611;30;20107;-80
2021/09/21 15:06:25;;;;;;;3.67;2.60;;;18.70;50.70;;;;;;4730213;30;20025;-82
2021/09/21 15:08:51;;;;;;;5.82;2.70;;;18.80;51.80;;;;;;4738734;30;20049;-82
2021/09/21 15:11:17;;;;;;;6.32;3.03;;;18.80;51.80;;;;;;4747344;30;20032;-81
2021/09/21 15:13:43;;;;;;;8.02;3.40;;;18.70;51.60;;;;;;4747443;30;20107;-82
2021/09/21 15:16:08;;;;;;;3.95;2.78;;;18.60;51.80;;;;;;4748382;30;20039;-82
2021/09/21 15:18:37;;;;;;;4.43;2.40;;;18.60;51.90;;;;;;4748180;30;20115;-81
2021/09/21 15:21:03;;;;;;;3.90;3.03;;;18.50;52.50;;;;;;4764692;30;20414;-82
2021/09/21 15:23:29;;;;;;;16.73;3.30;;;18.40;52.80;;;;;;4740172;30;20341;-82
2021/09/21 15:25:55;;;;;;;5.47;2.83;;;18.40;53.30;;;;;;4744929;30;20044;-82
2021/09/21 15:28:22;;;;;;;4.47;2.70;;;18.40;53.80;;;;;;4742543;30;20036;-81
2021/09/21 15:30:51;;;;;;;4.07;2.78;;;18.30;53.80;;;;;;4731312;30;20063;-83
2021/09/21 15:33:17;;;;;;;7.32;2.95;;;18.20;54.50;;;;;;4733491;30;20040;-82